Terminal Aerodrome Forecast
Issued by NWS

Home | Current Version | Previous Version | Text Only | Print | Product List | Glossary On
Versions: 1 2 3 4 5 6 7 8 9 10 11 12 13
305
FTPA31 PHFO 271140
TAFHJR
TAF
PHJR 271140Z 2712/2812 04005KT P6SM FEW045 SCT250
     FM272100 12009KT P6SM FEW030 BKN045 BKN250
     FM280400 VRB03KT P6SM VCSH SCT025 BKN045 BKN150=

USA.gov is the U.S. government's official web portal to all federal, state and local government web resources and services.